Flight Track Log - Related Links

Times and Time Zones

All times are in EST time to prevent confusion due to time zone crossing. See the UAL582 flight status page for this flight to view local times or setup timezone preferences in your user account.

Time Position Orientation Groundspeed Altitude Reporting Facility
EST Latitude Longitude Course Direction KTS MPH feet Rate Location/Type
Thu 08:15:11 AM 40.7167 -74.1333 270° West 173 199 2,000  Level New York TRACON
Thu 08:16:11 AM 40.7667 -74.2000 315° West 243 280 4,400 2,750 Climbing New York TRACON
Thu 08:17:00 AM 40.7773 -74.5467 282° West  Level FlightAware Approximate
Thu 08:17:11 AM 40.7833 -74.2833 285° West 262 302 7,500  Level New York TRACON
Thu 08:18:00 AM 40.8007 -74.6862 287° West  Level FlightAware Approximate
Thu 08:18:11 AM 40.8000 -74.3667 285° West 257 296 10,800  Level New York TRACON
Thu 08:19:00 AM 40.8323 -74.8229 287° West  Level FlightAware Approximate
Thu 08:19:11 AM 40.8500 -74.4333 315° West 275 316 12,000  Level New York TRACON
Thu 08:20:00 AM 40.8667 -74.9558 270° West  Level FlightAware Approximate
Thu 08:20:19 AM 40.9228 -74.3961 21° North 290 334 14,400  Level New York Center
Thu 08:21:19 AM 40.9878 -74.4489 329° Northwest 243 280 15,000 300 Climbing New York Center
Thu 08:22:19 AM 40.9808 -74.5339 264° West 211 243 15,000 300 Level New York Center
Thu 08:23:19 AM 40.9097 -74.6039 217° Southwest 229 264 15,600 950 Climbing New York Center
Thu 08:24:19 AM 40.8986 -74.6886 260° West 254 292 16,900 700 Climbing New York Center
Thu 08:25:19 AM 40.9036 -74.7931 274° West 259 298 17,000 400 Climbing New York Center
Thu 08:26:19 AM 40.9083 -74.8922 274° West 274 315 17,700 650 Climbing New York Center
Thu 08:27:19 AM 40.9111 -74.9967 272° West 303 349 18,300 1,350 Climbing New York Center
Thu 08:28:19 AM 40.9167 -75.1289 273° West 322 371 20,400 2,150 Climbing New York Center
Thu 08:29:19 AM 40.8994 -75.2514 260° West 327 376 22,600 2,050 Climbing New York Center
Thu 08:30:19 AM 40.8742 -75.3706 254° West 338 389 24,500 1,750 Climbing New York Center
Thu 08:31:19 AM 40.8464 -75.4919 253° West 338 389 26,100 1,500 Climbing New York Center
Thu 08:32:19 AM 40.8164 -75.6133 252° West 343 395 27,500 950 Climbing New York Center
Thu 08:33:19 AM 40.7864 -75.7372 252° West 349 402 28,000 248 Climbing New York Center
Thu 08:34:20 AM 40.7581 -75.8639 254° West 354 407 28,000 250 Level New York Center
Thu 08:35:19 AM 40.7256 -75.9903 251° West 359 413 28,500 807 Climbing New York Center
Thu 08:36:19 AM 40.6947 -76.1194 253° West 359 413 29,600 1,100 Climbing New York Center
Thu 08:37:19 AM 40.6658 -76.2483 254° West 370 426 30,700 1,400 Climbing New York Center
Thu 08:38:19 AM 40.6408 -76.3806 256° West 377 434 32,400 1,600 Climbing New York Center
Thu 08:39:19 AM 40.6511 -76.5153 276° West 365 420 33,900 1,100 Climbing New York Center
Thu 08:40:19 AM 40.6669 -76.6181 282° West 365 420 34,600 700 Climbing New York Center
Thu 08:41:19 AM 40.6867 -76.7647 280° West 365 420 35,300 700 Climbing New York Center
Thu 08:42:19 AM 40.7072 -76.8925 282° West 371 427 36,000 350 Climbing New York Center
Thu 08:43:19 AM 40.7253 -77.0228 280° West 371 427 36,000  Level New York Center
Thu 08:44:19 AM 40.7456 -77.1508 282° West 371 427 36,000  Level New York Center
Thu 08:45:19 AM 40.7636 -77.2811 280° West 366 421 36,000  Level New York Center
Thu 08:46:19 AM 40.7850 -77.4203 282° West 361 415 36,000  Level New York Center
Thu 08:48:07 AM 40.8167 -77.6433 281° West 360 414 36,000  Level Cleveland Center
Thu 08:49:09 AM 40.8344 -77.7725 280° West 360 414 36,000  Level Cleveland Center
Thu 08:50:11 AM 40.8531 -77.9022 281° West 360 414 36,000  Level Cleveland Center
Thu 08:51:13 AM 40.8703 -78.0331 280° West 360 414 36,000 -48 Level Cleveland Center
Thu 08:52:15 AM 40.8886 -78.1636 281° West 362 417 35,900  Descending Cleveland Center
Thu 08:53:17 AM 40.9092 -78.3228 280° West 364 419 36,000 48 Climbing Cleveland Center
Thu 08:54:19 AM 40.9250 -78.4525 279° West 363 418 36,000  Level Cleveland Center
Thu 08:55:21 AM 40.9236 -78.5833 269° West 359 413 36,000  Level Cleveland Center
Thu 08:56:23 AM 40.9222 -78.7150 269° West 359 413 36,000  Level Cleveland Center
Thu 08:57:25 AM 40.9183 -78.8478 268° West 360 414 36,000  Level Cleveland Center
Thu 08:58:27 AM 40.9156 -78.9789 268° West 360 414 36,000  Level Cleveland Center
Thu 08:59:29 AM 40.9117 -79.1372 268° West 362 417 36,000  Level Cleveland Center
Thu 09:00:31 AM 40.9069 -79.2692 267° West 362 417 36,000  Level Cleveland Center
Thu 09:01:33 AM 40.9042 -79.4006 268° West 361 415 36,000  Level Cleveland Center
Thu 09:02:35 AM 40.8994 -79.5333 267° West 361 415 36,000  Level Cleveland Center
Thu 09:03:37 AM 40.8964 -79.6661 268° West 362 417 36,000  Level Cleveland Center
Thu 09:04:39 AM 40.8906 -79.8244 267° West 362 417 36,000  Level Cleveland Center
Thu 09:05:41 AM 40.8861 -79.9575 268° West 364 419 36,000  Level Cleveland Center
Thu 09:06:43 AM 40.8817 -80.0903 268° West 364 419 36,000  Level Cleveland Center
Thu 09:07:45 AM 40.8772 -80.2239 268° West 365 420 36,000  Level Cleveland Center
Thu 09:08:47 AM 40.8725 -80.3586 267° West 367 422 36,000  Level Cleveland Center
Thu 09:09:49 AM 40.8667 -80.5203 267° West 368 423 36,000  Level Cleveland Center
Thu 09:10:51 AM 40.8619 -80.6581 267° West 370 426 36,000  Level Cleveland Center
Thu 09:11:53 AM 40.8569 -80.7906 267° West 371 427 36,000  Level Cleveland Center
Thu 09:12:55 AM 40.8506 -80.9267 266° West 371 427 36,000  Level Cleveland Center
Thu 09:13:57 AM 40.8442 -81.0708 267° West 371 427 36,000  Level Cleveland Center
Thu 09:14:59 AM 40.8378 -81.2092 267° West 373 429 36,000  Level Cleveland Center
Thu 09:16:01 AM 40.8308 -81.3469 266° West 373 429 36,000  Level Cleveland Center
Thu 09:17:03 AM 40.8247 -81.4833 267° West 370 426 36,000  Level Cleveland Center
Thu 09:18:05 AM 40.8175 -81.6211 266° West 370 426 36,000  Level Cleveland Center
Thu 09:19:06 AM 40.8097 -81.7808 266° West 369 425 36,000  Level Cleveland Center
Thu 09:20:08 AM 40.8031 -81.9189 266° West 370 426 36,000  Level Cleveland Center
Thu 09:21:10 AM 40.7958 -82.0575 266° West 370 426 36,000  Level Cleveland Center
Thu 09:22:12 AM 40.7883 -82.1958 266° West 371 427 36,000  Level Cleveland Center
Thu 09:23:14 AM 40.7814 -82.3350 266° West 373 429 36,000  Level Cleveland Center
Thu 09:24:16 AM 40.7742 -82.4753 266° West 377 434 36,000  Level Cleveland Center
Thu 09:25:18 AM 40.7664 -82.6142 266° West 378 435 36,000  Level Cleveland Center
Thu 09:26:19 AM 40.7581 -82.7525 265° West 376 433 36,000  Level Cleveland Center
Thu 09:27:21 AM 40.7506 -82.8956 266° West 377 434 36,000  Level Cleveland Center
Thu 09:28:23 AM 40.7425 -83.0333 266° West 377 434 36,000  Level Cleveland Center
Thu 09:29:25 AM 40.7339 -83.1700 265° West 377 434 36,000  Level Cleveland Center
Thu 09:30:27 AM 40.7247 -83.3367 266° West 379 436 36,000 -244 Level Cleveland Center
Thu 09:31:28 AM 40.7153 -83.4708 265° West 375 432 35,500 -593 Descending Cleveland Center
Thu 09:31:58 AM 40.7122 -83.5256 266° West 377 434 35,100 -903 Descending Indianapolis Center
Thu 09:33:01 AM 40.7047 -83.6628 266° West 377 434 34,100 -528 Descending Indianapolis Center
Thu 09:34:03 AM 40.6933 -83.8244 265° West 375 432 34,000 -48 Descending Indianapolis Center
Thu 09:35:05 AM 40.6856 -83.9600 266° West 374 430 34,000  Level Indianapolis Center
Thu 09:36:07 AM 40.6756 -84.0958 264° West 375 432 34,000  Level Indianapolis Center
Thu 09:37:09 AM 40.6658 -84.2331 265° West 375 432 34,000  Level Indianapolis Center
Thu 09:38:11 AM 40.6558 -84.3708 265° West 376 433 34,000  Level Indianapolis Center
Thu 09:39:13 AM 40.6431 -84.5378 264° West 380 437 34,000  Level Indianapolis Center
Thu 09:40:00 AM 40.6361 -84.6353 265° West 383 441 34,000 -275 Level Chicago Center
Thu 09:41:02 AM 40.6264 -84.7658 264° West 381 438 33,500 -968 Descending Chicago Center
Thu 09:42:04 AM 40.6142 -84.9311 264° West 381 438 32,000 -726 Descending Chicago Center
Thu 09:43:06 AM 40.6033 -85.0739 264° West 391 450 32,000  Level Chicago Center
Thu 09:44:08 AM 40.5925 -85.2167 264° West 394 453 32,000  Level Chicago Center
Thu 09:45:10 AM 40.5814 -85.3583 264° West 392 451 32,000  Level Chicago Center
Thu 09:46:12 AM 40.5700 -85.4981 264° West 388 447 32,000  Level Chicago Center
Thu 09:47:14 AM 40.5592 -85.6369 264° West 384 442 32,000  Level Chicago Center
Thu 09:48:16 AM 40.5456 -85.8042 264° West 387 445 32,000  Level Chicago Center
Thu 09:49:17 AM 40.5344 -85.9442 264° West 387 445 32,000  Level Chicago Center
Thu 09:50:19 AM 40.5217 -86.0858 263° West 391 450 32,000  Level Chicago Center
Thu 09:51:21 AM 40.5103 -86.2269 264° West 392 451 32,000  Level Chicago Center
Thu 09:52:23 AM 40.4969 -86.3678 263° West 392 451 32,000  Level Chicago Center
Thu 09:53:25 AM 40.4825 -86.5381 264° West 394 453 32,000  Level Chicago Center
Thu 09:54:27 AM 40.4692 -86.6797 263° West 394 453 32,000  Level Chicago Center
Thu 09:55:29 AM 40.4564 -86.8225 263° West 396 456 32,000  Level Chicago Center
Thu 09:56:31 AM 40.4431 -86.9661 263° West 399 459 32,000  Level Chicago Center
Thu 09:57:33 AM 40.4289 -87.1097 263° West 399 459 32,000  Level Chicago Center
Thu 09:58:35 AM 40.4144 -87.2544 263° West 401 461 32,000  Level Chicago Center
Thu 09:59:38 AM 40.3992 -87.4275 263° West 400 460 32,000  Level Chicago Center
Thu 10:00:40 AM 40.3856 -87.5636 263° West 402 463 32,000  Level Chicago Center
Thu 10:01:42 AM 40.3706 -87.7125 263° West 410 472 32,000  Level Chicago Center
Thu 10:02:44 AM 40.3525 -87.8919 263° West 413 475 32,000  Level Chicago Center
Thu 10:03:46 AM 40.3375 -88.0453 263° West 420 483 32,000  Level Chicago Center
Thu 10:04:48 AM 40.3211 -88.1978 262° West 423 487 32,000  Level Chicago Center
Thu 10:05:50 AM 40.3061 -88.3522 263° West 428 493 32,000  Level Chicago Center
Thu 10:06:52 AM 40.2864 -88.5200 261° West 428 493 32,000  Level Chicago Center
Thu 10:07:54 AM 40.2708 -88.6731 262° West 425 489 32,000 242 Level Chicago Center
Thu 10:08:56 AM 40.2542 -88.8269 262° West 426 490 32,500 919 Climbing Chicago Center
Thu 10:09:58 AM 40.2367 -88.9806 262° West 426 490 33,900 726 Climbing Chicago Center
Thu 10:11:00 AM 40.2194 -89.1336 262° West 425 489 34,000 48 Climbing Chicago Center
Thu 10:12:02 AM 40.2011 -89.2883 261° West 428 493 34,000  Level Chicago Center
Thu 10:13:04 AM 40.1836 -89.4414 262° West 425 489 34,000  Level Chicago Center
Thu 10:14:12 AM 40.1608 -89.6294 261° West 427 491 34,000  Level Kansas City Center
Thu 10:15:07 AM 40.1419 -89.7847 261° West 433 498 34,000  Level Chicago Center
Thu 10:16:09 AM 40.1228 -89.9417 261° West 434 499 34,000  Level Chicago Center
Thu 10:17:11 AM 40.1036 -90.0986 261° West 436 502 34,000 231 Level Chicago Center
Thu 10:18:19 AM 40.0814 -90.2908 261° West 434 499 34,500 646 Climbing Kansas City Center
Thu 10:19:21 AM 40.0619 -90.4472 261° West 434 499 35,400 726 Climbing Kansas City Center
Thu 10:20:23 AM 40.0408 -90.6056 260° West 437 503 36,000 290 Climbing Kansas City Center
Thu 10:21:25 AM 40.0228 -90.7644 262° West 440 506 36,000  Level Kansas City Center
Thu 10:22:27 AM 40.0008 -90.9214 260° West 440 506 36,000  Level Kansas City Center
Thu 10:23:29 AM 39.9806 -91.0786 260° West 440 506 36,000  Level Kansas City Center
Thu 10:24:31 AM 39.9600 -91.2364 260° West 440 506 36,000  Level Kansas City Center
Thu 10:25:33 AM 39.9342 -91.4250 260° West 440 506 36,000  Level Kansas City Center
Thu 10:26:35 AM 39.9125 -91.5828 260° West 441 507 36,000  Level Kansas City Center
Thu 10:27:37 AM 39.8906 -91.7392 260° West 443 510 36,000  Level Kansas City Center
Thu 10:28:39 AM 39.8700 -91.8961 260° West 441 507 36,000  Level Kansas City Center
Thu 10:29:41 AM 39.8500 -92.0508 260° West 440 506 36,000  Level Kansas City Center
Thu 10:30:43 AM 39.8272 -92.2058 259° West 439 505 36,000  Level Kansas City Center
Thu 10:31:45 AM 39.8047 -92.3611 259° West 439 505 36,000  Level Kansas City Center
Thu 10:32:47 AM 39.7786 -92.5461 260° West 438 504 36,000  Level Kansas City Center
Thu 10:33:49 AM 39.7558 -92.6992 259° West 432 497 36,000  Level Kansas City Center
Thu 10:34:51 AM 39.7333 -92.8525 259° West 432 497 36,000  Level Kansas City Center
Thu 10:35:53 AM 39.7111 -93.0039 259° West 431 496 36,000  Level Kansas City Center
Thu 10:36:55 AM 39.6892 -93.1561 259° West 431 496 36,000  Level Kansas City Center
Thu 10:37:57 AM 39.6644 -93.3056 258° West 430 495 36,000  Level Kansas City Center
Thu 10:38:59 AM 39.6364 -93.4886 259° West 430 495 36,000  Level Kansas City Center
Thu 10:40:01 AM 39.6119 -93.6450 259° West 430 495 36,000  Level Kansas City Center
Thu 10:41:03 AM 39.5900 -93.7992 260° West 430 495 36,000  Level Kansas City Center
Thu 10:42:05 AM 39.5669 -93.9453 258° West 430 495 36,000  Level Kansas City Center
Thu 10:43:06 AM 39.5397 -94.1150 258° West 431 496 36,000  Level Kansas City Center
Thu 10:44:08 AM 39.5167 -94.2611 258° West 431 496 36,000  Level Kansas City Center
Thu 10:45:10 AM 39.4900 -94.4306 259° West 431 496 36,000  Level Kansas City Center
Thu 10:46:12 AM 39.4667 -94.5753 258° West 431 496 36,000  Level Kansas City Center
Thu 10:47:14 AM 39.4386 -94.7475 258° West 435 501 36,000  Level Kansas City Center
Thu 10:48:16 AM 39.4139 -94.8928 258° West 435 501 36,000  Level Kansas City Center
Thu 10:49:18 AM 39.3844 -95.0625 257° West 435 501 36,000  Level Kansas City Center
Thu 10:50:20 AM 39.3597 -95.2131 258° West 435 501 36,000  Level Kansas City Center
Thu 10:51:22 AM 39.3336 -95.3719 258° West 435 501 36,000  Level Kansas City Center
Thu 10:52:24 AM 39.3081 -95.5169 257° West 434 499 36,000  Level Kansas City Center
Thu 10:53:26 AM 39.2792 -95.6853 258° West 433 498 36,000  Level Kansas City Center
Thu 10:54:28 AM 39.2531 -95.8308 257° West 437 503 36,000  Level Kansas City Center
Thu 10:55:30 AM 39.2247 -95.9989 258° West 432 497 36,000  Level Kansas City Center
Thu 10:56:32 AM 39.1989 -96.1428 257° West 432 497 36,000  Level Kansas City Center
Thu 10:57:34 AM 39.1686 -96.3108 257° West 432 497 36,000  Level Kansas City Center
Thu 10:58:37 AM 39.1431 -96.4558 257° West 432 497 36,000  Level Kansas City Center
Thu 10:59:39 AM 39.1111 -96.6231 256° West 432 497 36,000  Level Kansas City Center
Thu 11:00:41 AM 39.0864 -96.7669 258° West 432 497 36,000  Level Kansas City Center
Thu 11:01:43 AM 39.0583 -96.9094 256° West 432 497 36,000  Level Kansas City Center
Thu 11:03:47 AM 39.0008 -97.2217 257° West 433 498 36,000  Level Kansas City Center
Thu 11:04:49 AM 38.9725 -97.3703 256° West 433 498 36,000  Level Kansas City Center
Thu 11:05:51 AM 38.9414 -97.5333 256° West 433 498 36,000  Level Kansas City Center
Thu 11:06:53 AM 38.9006 -97.6972 252° West 432 497 36,000  Level Kansas City Center
Thu 11:07:55 AM 38.8519 -97.8583 249° West 437 503 36,000  Level Kansas City Center
Thu 11:08:57 AM 38.8128 -97.9867 249° West 442 509 36,000  Level Kansas City Center
Thu 11:09:59 AM 38.7672 -98.1300 248° West 441 507 36,000 97 Level Kansas City Center
Thu 11:11:01 AM 38.7128 -98.3036 248° West 441 507 36,200 677 Climbing Kansas City Center
Thu 11:12:03 AM 38.6683 -98.4456 248° West 437 503 37,400 871 Climbing Kansas City Center
Thu 11:13:05 AM 38.6239 -98.5881 248° West 435 501 38,000 290 Climbing Kansas City Center
Thu 11:14:07 AM 38.5781 -98.7319 248° West 437 503 38,000  Level Kansas City Center
Thu 11:15:09 AM 38.5333 -98.8767 248° West 440 506 38,000  Level Kansas City Center
Thu 11:16:12 AM 38.4772 -99.0511 248° West 441 507 38,000  Level Kansas City Center
Thu 11:17:14 AM 38.4317 -99.1969 248° West 442 509 38,000  Level Kansas City Center
Thu 11:18:16 AM 38.3833 -99.3406 247° West 443 510 38,000  Level Kansas City Center
Thu 11:19:18 AM 38.3364 -99.4847 247° West 443 510 38,000  Level Kansas City Center
Thu 11:20:20 AM 38.2825 -99.6483 247° West 441 507 38,000  Level Kansas City Center
Thu 11:21:22 AM 38.2392 -99.7853 248° West 440 506 38,000  Level Kansas City Center
Thu 11:22:24 AM 38.1847 -99.9436 246° West 439 505 38,000  Level Kansas City Center
Thu 11:23:26 AM 38.1394 -100.0786 247° West 438 504 38,000  Level Kansas City Center
Thu 11:24:28 AM 38.0858 -100.2386 247° West 438 504 38,000  Level Kansas City Center
Thu 11:25:30 AM 38.0403 -100.3733 247° West 438 504 38,000  Level Kansas City Center
Thu 11:26:32 AM 37.9872 -100.5292 247° West 437 503 38,000  Level Kansas City Center
Thu 11:27:34 AM 37.9414 -100.6625 246° West 435 501 38,000  Level Kansas City Center
Thu 11:28:36 AM 37.8903 -100.8156 247° West 431 496 38,000  Level Kansas City Center
Thu 11:29:38 AM 37.8486 -100.9453 248° West 427 491 38,000  Level Kansas City Center
Thu 11:30:40 AM 37.7997 -101.0933 247° West 420 483 38,000  Level Kansas City Center
Thu 11:31:42 AM 37.7583 -101.2189 247° West 414 476 38,000  Level Kansas City Center
Thu 11:32:44 AM 37.7100 -101.3656 247° West 412 474 38,000  Level Kansas City Center
Thu 11:33:47 AM 37.6683 -101.4917 247° West 411 473 38,000  Level Kansas City Center
Thu 11:34:49 AM 37.6194 -101.6400 247° West 410 472 38,000  Level Kansas City Center
Thu 11:35:51 AM 37.5764 -101.7686 247° West 412 474 38,000  Level Kansas City Center
Thu 11:36:53 AM 37.5261 -101.9192 247° West 415 478 38,000  Level Kansas City Center
Thu 11:37:55 AM 37.4836 -102.0492 248° West 416 479 38,000  Level Kansas City Center
Thu 11:38:57 AM 37.4328 -102.2006 247° West 417 480 38,000  Level Kansas City Center
Thu 11:39:59 AM 37.3900 -102.3289 247° West 417 480 38,000  Level Kansas City Center
Thu 11:40:38 AM 37.3594 -102.4253 248° West 416 479 38,000  Level Albuquerque Center
Thu 11:41:40 AM 37.3164 -102.5533 247° West 414 476 38,000  Level Albuquerque Center
Thu 11:42:43 AM 37.2661 -102.7006 247° West 411 473 38,000  Level Albuquerque Center
Thu 11:43:45 AM 37.2222 -102.8244 246° West 406 467 38,000  Level Albuquerque Center
Thu 11:44:47 AM 37.1717 -102.9686 246° West 404 465 38,000  Level Albuquerque Center
Thu 11:45:49 AM 37.1278 -103.0919 246° West 404 465 38,000  Level Albuquerque Center
Thu 11:46:51 AM 37.0864 -103.2125 247° West 397 457 38,000  Level Albuquerque Center
Thu 11:47:53 AM 37.0369 -103.3539 246° West 395 455 38,000  Level Albuquerque Center
Thu 11:48:55 AM 36.9953 -103.4742 247° West 393 452 38,000  Level Albuquerque Center
Thu 11:49:57 AM 36.9467 -103.6144 247° West 392 451 38,000  Level Albuquerque Center
Thu 11:50:59 AM 36.9050 -103.7333 246° West 390 449 38,000  Level Albuquerque Center
Thu 11:52:01 AM 36.8558 -103.8700 246° West 386 444 38,000  Level Albuquerque Center
Thu 11:53:03 AM 36.8153 -103.9856 246° West 382 440 38,000  Level Albuquerque Center
Thu 11:54:05 AM 36.7658 -104.1206 245° Southwest 382 440 38,000  Level Albuquerque Center
Thu 11:55:07 AM 36.7236 -104.2356 245° Southwest 381 438 38,000  Level Albuquerque Center
Thu 11:56:10 AM 36.6756 -104.3697 246° West 380 437 38,000  Level Albuquerque Center
Thu 11:57:12 AM 36.6314 -104.4886 245° Southwest 379 436 38,000  Level Albuquerque Center
Thu 11:58:14 AM 36.5869 -104.6097 245° Southwest 380 437 38,000  Level Albuquerque Center
Thu 11:59:16 AM 36.5419 -104.7303 245° Southwest 382 440 38,000  Level Albuquerque Center
Thu 12:00:18 PM 36.4983 -104.8528 246° West 385 443 38,000  Level Albuquerque Center
Thu 12:01:20 PM 36.4558 -104.9756 247° West 385 443 38,000  Level Albuquerque Center
Thu 12:02:22 PM 36.4156 -105.0986 248° West 383 441 38,000  Level Albuquerque Center
Thu 12:03:24 PM 36.3664 -105.2422 247° West 384 442 38,000  Level Albuquerque Center
Thu 12:04:26 PM 36.3244 -105.3669 247° West 388 447 38,000  Level Albuquerque Center
Thu 12:05:28 PM 36.2833 -105.4889 247° West 384 442 38,000  Level Albuquerque Center
Thu 12:06:30 PM 36.2408 -105.6114 247° West 382 440 38,000  Level Albuquerque Center
Thu 12:07:32 PM 36.1989 -105.7325 247° West 383 441 38,000  Level Albuquerque Center
Thu 12:08:34 PM 36.1581 -105.8542 247° West 384 442 38,000  Level Albuquerque Center
Thu 12:09:37 PM 36.1183 -105.9756 248° West 384 442 38,000  Level Albuquerque Center
Thu 12:10:39 PM 36.0678 -106.1197 247° West 382 440 38,000  Level Albuquerque Center
Thu 12:11:41 PM 36.0258 -106.2400 247° West 382 440 38,000  Level Albuquerque Center
Thu 12:12:43 PM 35.9842 -106.3589 247° West 380 437 38,000  Level Albuquerque Center
Thu 12:13:45 PM 35.9422 -106.4792 247° West 381 438 38,000  Level Albuquerque Center
Thu 12:14:47 PM 35.8936 -106.6167 246° West 383 441 38,000  Level Albuquerque Center
Thu 12:15:49 PM 35.8531 -106.7314 246° West 382 440 38,000  Level Albuquerque Center
Thu 12:16:51 PM 35.8061 -106.8636 246° West 379 436 38,000  Level Albuquerque Center
Thu 12:17:53 PM 35.7653 -106.9786 246° West 381 438 38,000  Level Albuquerque Center
Thu 12:18:55 PM 35.7178 -107.1106 246° West 378 435 38,000  Level Albuquerque Center
Thu 12:19:57 PM 35.6772 -107.2247 246° West 380 437 38,000  Level Albuquerque Center
Thu 12:20:59 PM 35.6381 -107.3403 247° West 381 438 38,000  Level Albuquerque Center
Thu 12:22:01 PM 35.5892 -107.4736 246° West 382 440 38,000  Level Albuquerque Center
Thu 12:23:04 PM 35.5489 -107.5883 247° West 382 440 38,000  Level Albuquerque Center
Thu 12:24:06 PM 35.4994 -107.7239 246° West 387 445 38,000  Level Albuquerque Center
Thu 12:25:08 PM 35.4572 -107.8428 246° West 392 451 38,000  Level Albuquerque Center
Thu 12:26:10 PM 35.4083 -107.9819 247° West 396 456 38,000  Level Albuquerque Center
Thu 12:27:12 PM 35.3636 -108.1025 246° West 401 461 38,000  Level Albuquerque Center
Thu 12:28:14 PM 35.3131 -108.2400 246° West 398 458 38,000  Level Albuquerque Center
Thu 12:29:16 PM 35.2706 -108.3578 246° West 395 455 38,000  Level Albuquerque Center
Thu 12:30:18 PM 35.2211 -108.4914 246° West 388 447 38,000  Level Albuquerque Center
Thu 12:31:20 PM 35.1792 -108.6044 246° West 383 441 38,000  Level Albuquerque Center
Thu 12:32:22 PM 35.1372 -108.7178 246° West 382 440 38,000  Level Albuquerque Center
Thu 12:33:24 PM 35.0881 -108.8492 245° Southwest 381 438 38,000 -242 Level Albuquerque Center
Thu 12:34:26 PM 35.0472 -108.9606 246° West 378 435 37,500 -1,452 Descending Albuquerque Center
Thu 12:35:28 PM 34.9978 -109.0919 245° Southwest 379 436 35,000 -2,640 Descending Albuquerque Center
Thu 12:36:31 PM 34.9536 -109.2094 245° Southwest 387 445 32,000 -2,064 Descending Albuquerque Center
Thu 12:37:33 PM 34.8992 -109.3519 245° Southwest 405 466 30,700 -968 Descending Albuquerque Center
Thu 12:38:35 PM 34.8536 -109.4775 246° West 416 479 30,000 -339 Descending Albuquerque Center
Thu 12:39:37 PM 34.7992 -109.6222 245° Southwest 420 483 30,000  Level Albuquerque Center
Thu 12:40:39 PM 34.7519 -109.7467 245° Southwest 421 484 30,000  Level Albuquerque Center
Thu 12:41:41 PM 34.6967 -109.8906 245° Southwest 421 484 30,000  Level Albuquerque Center
Thu 12:42:43 PM 34.6511 -110.0139 246° West 419 482 30,000  Level Albuquerque Center
Thu 12:43:45 PM 34.5992 -110.1619 247° West 424 488 30,000  Level Albuquerque Center
Thu 12:44:47 PM 34.5553 -110.2872 247° West 423 487 30,000  Level Albuquerque Center
Thu 12:45:49 PM 34.5044 -110.4033 242° Southwest 412 474 30,000  Level Albuquerque Center
Thu 12:46:51 PM 34.4597 -110.5322 247° West 424 488 30,000 -194 Level Albuquerque Center
Thu 12:47:53 PM 34.4019 -110.6825 245° Southwest 415 478 29,600 -1,258 Descending Albuquerque Center
Thu 12:48:55 PM 34.3514 -110.7964 242° Southwest 394 453 27,400 -1,839 Descending Albuquerque Center
Thu 12:49:57 PM 34.2831 -110.8892 228° Southwest 372 428 25,800 -1,488 Descending Albuquerque Center
Thu 12:51:00 PM 34.2122 -110.9814 227° Southwest 373 429 24,300 -1,536 Descending Albuquerque Center
Thu 12:52:02 PM 34.1425 -111.0708 227° Southwest 368 423 22,600 -1,839 Descending Albuquerque Center
Thu 12:53:04 PM 34.0764 -111.1567 227° Southwest 357 411 20,500 -2,081 Descending Albuquerque Center
Thu 12:54:06 PM 34.0036 -111.2500 227° Southwest 324 373 18,300 -1,839 Descending Albuquerque Center
Thu 12:55:08 PM 33.9469 -111.3231 227° Southwest 302 348 16,700 -1,452 Descending Albuquerque Center
Thu 12:56:10 PM 33.8892 -111.3978 227° Southwest 302 348 15,300 -1,258 Descending Albuquerque Center
Thu 12:57:12 PM 33.8419 -111.4814 236° Southwest 299 344 14,100 -1,403 Descending Albuquerque Center
Thu 12:58:14 PM 33.7967 -111.5672 238° Southwest 303 349 12,400 -1,548 Descending Albuquerque Center
Thu 12:59:16 PM 33.7525 -111.6519 238° Southwest 297 342 10,900 -1,210 Descending Albuquerque Center
Thu 01:00:18 PM 33.7097 -111.7347 238° Southwest 291 335 9,900 -816 Descending Albuquerque Center
Thu 01:01:21 PM 33.6564 -111.8253 235° Southwest 277 319 9,200 -384 Descending Albuquerque Center
Thu 01:02:23 PM 33.6131 -111.9039 237° Southwest 280 322 9,100 -367 Descending Albuquerque Center
Thu 01:02:59 PM 33.5833 -111.9500 232° Southwest 280 322 8,600 -1,313 Descending Phoenix TRACON
Thu 01:03:59 PM 33.5500 -112.0333 244° Southwest 274 315 7,000 -1,700 Descending Phoenix TRACON
Thu 01:04:59 PM 33.5333 -112.1167 257° West 264 304 5,200 -1,333 Descending Phoenix TRACON
Thu 01:05:29 PM 33.5253 -112.1458 252° West 262 302 5,000 -717 Descending Albuquerque Center
Thu 01:06:31 PM 33.4822 -112.1825 215° Southwest 214 246 4,100 -919 Descending Albuquerque Center
Thu 01:07:33 PM 33.4456 -112.1500 144° Southeast 177 204 3,100 -968 Descending Albuquerque Center
Thu 01:08:35 PM 33.4408 -112.0858 95° East 160 184 2,100 -823 Descending Albuquerque Center
Thu 01:09:37 PM 33.4403 -112.0375 91° East 137 158 1,400 -484 Descending Albuquerque Center
Thu 01:10:39 PM 33.4411 -112.0008 88° East 133 153 1,100 -290 Descending Albuquerque Center

Login

Don't have an account? Register now (free) for customized features, flight alerts, and more!